sensor_id;sensor_type;location;lat;lon;timestamp;temperature;humidity
75281;HTU21D;63874;47.230;39.620;2023-11-21T00:00:34;2.36;82.07
75281;HTU21D;63874;47.230;39.620;2023-11-21T00:03:03;2.36;81.84
75281;HTU21D;63874;47.230;39.620;2023-11-21T00:05:29;2.34;81.59
75281;HTU21D;63874;47.230;39.620;2023-11-21T00:07:55;2.30;81.68
75281;HTU21D;63874;47.230;39.620;2023-11-21T00:10:21;2.32;81.60
75281;HTU21D;63874;47.230;39.620;2023-11-21T00:12:47;2.25;81.46
75281;HTU21D;63874;47.230;39.620;2023-11-21T00:15:14;2.24;81.36
75281;HTU21D;63874;47.230;39.620;2023-11-21T00:17:41;2.24;81.14
75281;HTU21D;63874;47.230;39.620;2023-11-21T00:20:08;2.14;80.95
75281;HTU21D;63874;47.230;39.620;2023-11-21T00:22:38;2.10;81.04
75281;HTU21D;63874;47.230;39.620;2023-11-21T00:25:08;2.06;81.22
75281;HTU21D;63874;47.230;39.620;2023-11-21T00:27:37;2.06;81.03
75281;HTU21D;63874;47.230;39.620;2023-11-21T00:30:04;1.98;81.10
75281;HTU21D;63874;47.230;39.620;2023-11-21T00:32:31;1.95;81.31
75281;HTU21D;63874;47.230;39.620;2023-11-21T00:34:57;1.93;81.43
75281;HTU21D;63874;47.230;39.620;2023-11-21T00:37:22;1.88;81.76
75281;HTU21D;63874;47.230;39.620;2023-11-21T00:39:51;1.95;81.39
75281;HTU21D;63874;47.230;39.620;2023-11-21T00:42:17;1.98;81.09
75281;HTU21D;63874;47.230;39.620;2023-11-21T00:44:44;1.96;81.25
75281;HTU21D;63874;47.230;39.620;2023-11-21T00:47:10;1.94;81.58
75281;HTU21D;63874;47.230;39.620;2023-11-21T00:49:39;1.91;81.88
75281;HTU21D;63874;47.230;39.620;2023-11-21T00:52:07;1.88;81.54
75281;HTU21D;63874;47.230;39.620;2023-11-21T00:54:33;1.79;81.64
75281;HTU21D;63874;47.230;39.620;2023-11-21T00:56:59;1.72;82.18
75281;HTU21D;63874;47.230;39.620;2023-11-21T00:59:25;1.70;82.13
75281;HTU21D;63874;47.230;39.620;2023-11-21T01:01:50;1.75;82.16
75281;HTU21D;63874;47.230;39.620;2023-11-21T01:04:19;1.76;81.95
75281;HTU21D;63874;47.230;39.620;2023-11-21T01:06:45;1.73;81.88
75281;HTU21D;63874;47.230;39.620;2023-11-21T01:09:11;1.69;81.83
75281;HTU21D;63874;47.230;39.620;2023-11-21T01:11:38;1.70;81.89
75281;HTU21D;63874;47.230;39.620;2023-11-21T01:14:04;1.72;81.81
75281;HTU21D;63874;47.230;39.620;2023-11-21T01:16:30;1.77;81.54
75281;HTU21D;63874;47.230;39.620;2023-11-21T01:18:58;1.77;81.59
75281;HTU21D;63874;47.230;39.620;2023-11-21T01:21:25;1.76;81.43
75281;HTU21D;63874;47.230;39.620;2023-11-21T01:23:51;1.73;81.07
75281;HTU21D;63874;47.230;39.620;2023-11-21T01:26:17;1.71;81.31
75281;HTU21D;63874;47.230;39.620;2023-11-21T01:28:42;1.70;81.17
75281;HTU21D;63874;47.230;39.620;2023-11-21T01:31:09;1.71;81.00
75281;HTU21D;63874;47.230;39.620;2023-11-21T01:33:35;1.70;80.81
75281;HTU21D;63874;47.230;39.620;2023-11-21T01:36:00;1.67;80.77
75281;HTU21D;63874;47.230;39.620;2023-11-21T01:38:26;1.61;80.88
75281;HTU21D;63874;47.230;39.620;2023-11-21T01:40:53;1.61;80.94
75281;HTU21D;63874;47.230;39.620;2023-11-21T01:43:20;1.60;80.75
75281;HTU21D;63874;47.230;39.620;2023-11-21T01:45:45;1.60;81.07
75281;HTU21D;63874;47.230;39.620;2023-11-21T01:48:12;1.58;80.78
75281;HTU21D;63874;47.230;39.620;2023-11-21T01:50:39;1.62;80.41
75281;HTU21D;63874;47.230;39.620;2023-11-21T01:53:05;1.57;80.66
75281;HTU21D;63874;47.230;39.620;2023-11-21T01:55:36;1.62;80.18
75281;HTU21D;63874;47.230;39.620;2023-11-21T01:58:04;1.58;80.03
75281;HTU21D;63874;47.230;39.620;2023-11-21T02:00:31;1.51;80.15
75281;HTU21D;63874;47.230;39.620;2023-11-21T02:02:58;1.55;79.95
75281;HTU21D;63874;47.230;39.620;2023-11-21T02:05:24;1.45;80.09
75281;HTU21D;63874;47.230;39.620;2023-11-21T02:07:51;1.46;80.09
75281;HTU21D;63874;47.230;39.620;2023-11-21T02:10:18;1.45;80.04
75281;HTU21D;63874;47.230;39.620;2023-11-21T02:12:51;1.41;80.31
75281;HTU21D;63874;47.230;39.620;2023-11-21T02:15:19;1.40;80.17
75281;HTU21D;63874;47.230;39.620;2023-11-21T02:17:54;1.40;80.13
75281;HTU21D;63874;47.230;39.620;2023-11-21T02:20:21;1.37;79.92
75281;HTU21D;63874;47.230;39.620;2023-11-21T02:22:55;1.33;80.25
75281;HTU21D;63874;47.230;39.620;2023-11-21T02:25:25;1.31;80.36
75281;HTU21D;63874;47.230;39.620;2023-11-21T02:27:56;1.31;80.21
75281;HTU21D;63874;47.230;39.620;2023-11-21T02:30:22;1.28;80.03
75281;HTU21D;63874;47.230;39.620;2023-11-21T02:32:49;1.27;80.07
75281;HTU21D;63874;47.230;39.620;2023-11-21T02:35:18;1.27;79.91
75281;HTU21D;63874;47.230;39.620;2023-11-21T02:37:49;1.23;79.75
75281;HTU21D;63874;47.230;39.620;2023-11-21T02:40:15;1.23;79.82
75281;HTU21D;63874;47.230;39.620;2023-11-21T02:42:43;1.22;79.66
75281;HTU21D;63874;47.230;39.620;2023-11-21T02:45:09;1.22;79.56
75281;HTU21D;63874;47.230;39.620;2023-11-21T02:47:39;1.19;79.56
75281;HTU21D;63874;47.230;39.620;2023-11-21T02:50:06;1.18;79.71
75281;HTU21D;63874;47.230;39.620;2023-11-21T02:52:34;1.14;79.95
75281;HTU21D;63874;47.230;39.620;2023-11-21T02:55:03;1.13;80.11
75281;HTU21D;63874;47.230;39.620;2023-11-21T02:57:29;1.13;80.36
75281;HTU21D;63874;47.230;39.620;2023-11-21T02:59:55;1.14;80.31
75281;HTU21D;63874;47.230;39.620;2023-11-21T03:02:21;1.19;80.34
75281;HTU21D;63874;47.230;39.620;2023-11-21T03:04:48;1.25;80.25
75281;HTU21D;63874;47.230;39.620;2023-11-21T03:07:18;1.28;79.78
75281;HTU21D;63874;47.230;39.620;2023-11-21T03:09:47;1.24;79.76
75281;HTU21D;63874;47.230;39.620;2023-11-21T03:12:14;1.19;80.01
75281;HTU21D;63874;47.230;39.620;2023-11-21T03:14:41;1.17;80.07
75281;HTU21D;63874;47.230;39.620;2023-11-21T03:17:08;1.14;80.03
75281;HTU21D;63874;47.230;39.620;2023-11-21T03:19:34;1.08;79.93
75281;HTU21D;63874;47.230;39.620;2023-11-21T03:22:00;1.10;79.78
75281;HTU21D;63874;47.230;39.620;2023-11-21T03:24:27;1.09;80.06
75281;HTU21D;63874;47.230;39.620;2023-11-21T03:26:58;1.08;80.08
75281;HTU21D;63874;47.230;39.620;2023-11-21T03:29:25;1.11;80.01
75281;HTU21D;63874;47.230;39.620;2023-11-21T03:31:51;1.12;79.56
75281;HTU21D;63874;47.230;39.620;2023-11-21T03:34:23;1.06;79.79
75281;HTU21D;63874;47.230;39.620;2023-11-21T03:36:50;1.04;80.09
75281;HTU21D;63874;47.230;39.620;2023-11-21T03:39:15;1.03;80.35
75281;HTU21D;63874;47.230;39.620;2023-11-21T03:41:42;0.96;80.42
75281;HTU21D;63874;47.230;39.620;2023-11-21T03:44:09;0.95;80.43
75281;HTU21D;63874;47.230;39.620;2023-11-21T03:46:36;0.93;80.51
75281;HTU21D;63874;47.230;39.620;2023-11-21T03:49:02;0.95;80.49
75281;HTU21D;63874;47.230;39.620;2023-11-21T03:51:28;0.95;80.54
75281;HTU21D;63874;47.230;39.620;2023-11-21T03:53:57;1.02;80.52
75281;HTU21D;63874;47.230;39.620;2023-11-21T03:56:24;1.07;80.43
75281;HTU21D;63874;47.230;39.620;2023-11-21T03:58:51;1.13;80.11
75281;HTU21D;63874;47.230;39.620;2023-11-21T04:01:23;1.17;79.72
75281;HTU21D;63874;47.230;39.620;2023-11-21T04:03:50;1.12;80.00
75281;HTU21D;63874;47.230;39.620;2023-11-21T04:06:20;1.10;80.15
75281;HTU21D;63874;47.230;39.620;2023-11-21T04:08:46;1.13;79.99
75281;HTU21D;63874;47.230;39.620;2023-11-21T04:11:12;1.10;80.04
75281;HTU21D;63874;47.230;39.620;2023-11-21T04:13:44;1.07;80.24
75281;HTU21D;63874;47.230;39.620;2023-11-21T04:16:11;1.06;80.07
75281;HTU21D;63874;47.230;39.620;2023-11-21T04:18:39;1.01;80.18
75281;HTU21D;63874;47.230;39.620;2023-11-21T04:21:05;1.02;80.30
75281;HTU21D;63874;47.230;39.620;2023-11-21T04:23:35;0.97;80.15
75281;HTU21D;63874;47.230;39.620;2023-11-21T04:26:01;0.97;80.17
75281;HTU21D;63874;47.230;39.620;2023-11-21T04:28:27;0.99;80.16
75281;HTU21D;63874;47.230;39.620;2023-11-21T04:30:53;1.03;79.93
75281;HTU21D;63874;47.230;39.620;2023-11-21T04:33:21;1.04;79.56
75281;HTU21D;63874;47.230;39.620;2023-11-21T04:35:49;1.02;79.67
75281;HTU21D;63874;47.230;39.620;2023-11-21T04:38:15;0.97;79.76
75281;HTU21D;63874;47.230;39.620;2023-11-21T04:40:41;0.95;79.89
75281;HTU21D;63874;47.230;39.620;2023-11-21T04:43:07;0.94;80.05
75281;HTU21D;63874;47.230;39.620;2023-11-21T04:45:32;0.95;79.99
75281;HTU21D;63874;47.230;39.620;2023-11-21T04:47:58;0.93;80.01
75281;HTU21D;63874;47.230;39.620;2023-11-21T04:50:24;0.92;80.26
75281;HTU21D;63874;47.230;39.620;2023-11-21T04:52:55;0.96;80.25
75281;HTU21D;63874;47.230;39.620;2023-11-21T04:55:21;0.95;80.20
75281;HTU21D;63874;47.230;39.620;2023-11-21T04:57:47;0.98;79.92
75281;HTU21D;63874;47.230;39.620;2023-11-21T05:00:12;0.96;79.61
75281;HTU21D;63874;47.230;39.620;2023-11-21T05:02:39;0.91;79.53
75281;HTU21D;63874;47.230;39.620;2023-11-21T05:05:06;0.93;79.63
75281;HTU21D;63874;47.230;39.620;2023-11-21T05:07:33;0.95;79.89
75281;HTU21D;63874;47.230;39.620;2023-11-21T05:10:02;0.98;79.91
75281;HTU21D;63874;47.230;39.620;2023-11-21T05:12:33;1.02;80.15
75281;HTU21D;63874;47.230;39.620;2023-11-21T05:15:03;1.05;80.24
75281;HTU21D;63874;47.230;39.620;2023-11-21T05:17:33;1.10;80.17
75281;HTU21D;63874;47.230;39.620;2023-11-21T05:20:00;1.13;80.27
75281;HTU21D;63874;47.230;39.620;2023-11-21T05:22:30;1.19;79.43
75281;HTU21D;63874;47.230;39.620;2023-11-21T05:24:59;1.17;79.33
75281;HTU21D;63874;47.230;39.620;2023-11-21T05:27:28;1.13;79.46
75281;HTU21D;63874;47.230;39.620;2023-11-21T05:29:53;1.11;79.66
75281;HTU21D;63874;47.230;39.620;2023-11-21T05:32:19;1.17;79.38
75281;HTU21D;63874;47.230;39.620;2023-11-21T05:34:49;1.09;79.43
75281;HTU21D;63874;47.230;39.620;2023-11-21T05:37:15;1.09;79.28
75281;HTU21D;63874;47.230;39.620;2023-11-21T05:39:42;0.98;79.32
75281;HTU21D;63874;47.230;39.620;2023-11-21T05:42:08;0.97;79.32
75281;HTU21D;63874;47.230;39.620;2023-11-21T05:44:37;0.98;79.14
75281;HTU21D;63874;47.230;39.620;2023-11-21T05:47:06;0.99;79.34
75281;HTU21D;63874;47.230;39.620;2023-11-21T05:49:35;1.06;78.81
75281;HTU21D;63874;47.230;39.620;2023-11-21T05:52:04;1.09;78.54
75281;HTU21D;63874;47.230;39.620;2023-11-21T05:54:30;1.08;77.92
75281;HTU21D;63874;47.230;39.620;2023-11-21T05:56:56;1.09;77.47
75281;HTU21D;63874;47.230;39.620;2023-11-21T05:59:24;1.04;77.98
75281;HTU21D;63874;47.230;39.620;2023-11-21T06:01:50;1.07;77.67
75281;HTU21D;63874;47.230;39.620;2023-11-21T06:04:16;1.09;76.64
75281;HTU21D;63874;47.230;39.620;2023-11-21T06:06:41;1.05;77.26
75281;HTU21D;63874;47.230;39.620;2023-11-21T06:09:07;1.03;77.08
75281;HTU21D;63874;47.230;39.620;2023-11-21T06:11:37;1.01;77.28
75281;HTU21D;63874;47.230;39.620;2023-11-21T06:14:08;1.02;77.18
75281;HTU21D;63874;47.230;39.620;2023-11-21T06:16:42;0.95;77.24
75281;HTU21D;63874;47.230;39.620;2023-11-21T06:19:11;0.91;77.27
75281;HTU21D;63874;47.230;39.620;2023-11-21T06:21:37;0.87;76.82
75281;HTU21D;63874;47.230;39.620;2023-11-21T06:24:06;0.81;77.34
75281;HTU21D;63874;47.230;39.620;2023-11-21T06:26:32;0.86;77.11
75281;HTU21D;63874;47.230;39.620;2023-11-21T06:29:04;0.78;76.41
75281;HTU21D;63874;47.230;39.620;2023-11-21T06:31:30;0.69;76.67
75281;HTU21D;63874;47.230;39.620;2023-11-21T06:33:58;0.71;76.64
75281;HTU21D;63874;47.230;39.620;2023-11-21T06:36:28;0.71;76.93
75281;HTU21D;63874;47.230;39.620;2023-11-21T06:38:54;0.76;76.53
75281;HTU21D;63874;47.230;39.620;2023-11-21T06:41:21;0.75;76.84
75281;HTU21D;63874;47.230;39.620;2023-11-21T06:43:47;0.74;77.08
75281;HTU21D;63874;47.230;39.620;2023-11-21T06:46:13;0.75;76.84
75281;HTU21D;63874;47.230;39.620;2023-11-21T06:48:48;0.74;76.15
75281;HTU21D;63874;47.230;39.620;2023-11-21T06:51:14;0.68;76.37
75281;HTU21D;63874;47.230;39.620;2023-11-21T06:53:42;0.71;76.42
75281;HTU21D;63874;47.230;39.620;2023-11-21T06:56:17;0.74;76.33
75281;HTU21D;63874;47.230;39.620;2023-11-21T06:58:43;0.66;75.77
75281;HTU21D;63874;47.230;39.620;2023-11-21T07:01:11;0.75;75.67
75281;HTU21D;63874;47.230;39.620;2023-11-21T07:03:37;0.79;74.92
75281;HTU21D;63874;47.230;39.620;2023-11-21T07:06:24;0.74;74.92
75281;HTU21D;63874;47.230;39.620;2023-11-21T07:08:49;0.73;74.80
75281;HTU21D;63874;47.230;39.620;2023-11-21T07:11:18;0.57;74.87
75281;HTU21D;63874;47.230;39.620;2023-11-21T07:13:43;0.52;75.15
75281;HTU21D;63874;47.230;39.620;2023-11-21T07:16:15;0.52;74.71
75281;HTU21D;63874;47.230;39.620;2023-11-21T07:18:45;0.50;74.91
75281;HTU21D;63874;47.230;39.620;2023-11-21T07:21:13;0.46;75.08
75281;HTU21D;63874;47.230;39.620;2023-11-21T07:23:41;0.37;74.99
75281;HTU21D;63874;47.230;39.620;2023-11-21T07:26:10;0.30;75.41
75281;HTU21D;63874;47.230;39.620;2023-11-21T07:28:37;0.32;75.50
75281;HTU21D;63874;47.230;39.620;2023-11-21T07:31:03;0.35;75.38
75281;HTU21D;63874;47.230;39.620;2023-11-21T07:33:29;0.32;75.99
75281;HTU21D;63874;47.230;39.620;2023-11-21T07:35:55;0.35;75.92
75281;HTU21D;63874;47.230;39.620;2023-11-21T07:38:25;0.32;75.99
75281;HTU21D;63874;47.230;39.620;2023-11-21T07:40:50;0.29;75.38
75281;HTU21D;63874;47.230;39.620;2023-11-21T07:43:16;0.32;75.37
75281;HTU21D;63874;47.230;39.620;2023-11-21T07:45:44;0.32;75.63
75281;HTU21D;63874;47.230;39.620;2023-11-21T07:48:13;0.38;75.18
75281;HTU21D;63874;47.230;39.620;2023-11-21T07:50:39;0.37;74.96
75281;HTU21D;63874;47.230;39.620;2023-11-21T07:53:07;0.45;74.99
75281;HTU21D;63874;47.230;39.620;2023-11-21T07:55:33;0.51;75.03
75281;HTU21D;63874;47.230;39.620;2023-11-21T07:57:59;0.53;74.96
75281;HTU21D;63874;47.230;39.620;2023-11-21T08:00:24;0.52;74.42
75281;HTU21D;63874;47.230;39.620;2023-11-21T08:02:51;0.55;73.65
75281;HTU21D;63874;47.230;39.620;2023-11-21T08:05:17;0.50;73.25
75281;HTU21D;63874;47.230;39.620;2023-11-21T08:07:43;0.52;72.90
75281;HTU21D;63874;47.230;39.620;2023-11-21T08:10:09;0.50;73.03
75281;HTU21D;63874;47.230;39.620;2023-11-21T08:12:35;0.40;73.65
75281;HTU21D;63874;47.230;39.620;2023-11-21T08:15:01;0.40;73.31
75281;HTU21D;63874;47.230;39.620;2023-11-21T08:17:28;0.42;73.73
75281;HTU21D;63874;47.230;39.620;2023-11-21T08:20:08;0.39;73.80
75281;HTU21D;63874;47.230;39.620;2023-11-21T08:22:36;0.45;73.29
75281;HTU21D;63874;47.230;39.620;2023-11-21T08:25:02;0.39;73.13
75281;HTU21D;63874;47.230;39.620;2023-11-21T08:27:30;0.40;73.65
75281;HTU21D;63874;47.230;39.620;2023-11-21T08:29:59;0.48;73.33
75281;HTU21D;63874;47.230;39.620;2023-11-21T08:32:25;0.49;72.98
75281;HTU21D;63874;47.230;39.620;2023-11-21T08:34:52;0.46;73.54
75281;HTU21D;63874;47.230;39.620;2023-11-21T08:37:21;0.48;73.67
75281;HTU21D;63874;47.230;39.620;2023-11-21T08:39:47;0.51;73.78
75281;HTU21D;63874;47.230;39.620;2023-11-21T08:42:18;0.50;72.59
75281;HTU21D;63874;47.230;39.620;2023-11-21T08:44:44;0.43;72.61
75281;HTU21D;63874;47.230;39.620;2023-11-21T08:47:19;0.46;73.33
75281;HTU21D;63874;47.230;39.620;2023-11-21T08:49:45;0.49;72.59
75281;HTU21D;63874;47.230;39.620;2023-11-21T08:52:12;0.47;72.32
75281;HTU21D;63874;47.230;39.620;2023-11-21T08:54:39;0.51;72.35
75281;HTU21D;63874;47.230;39.620;2023-11-21T08:57:11;0.43;72.07
75281;HTU21D;63874;47.230;39.620;2023-11-21T08:59:41;0.45;72.51
75281;HTU21D;63874;47.230;39.620;2023-11-21T09:02:07;0.47;72.57
75281;HTU21D;63874;47.230;39.620;2023-11-21T09:04:36;0.42;72.38
75281;HTU21D;63874;47.230;39.620;2023-11-21T09:07:03;0.29;72.37
75281;HTU21D;63874;47.230;39.620;2023-11-21T09:09:29;0.21;72.92
75281;HTU21D;63874;47.230;39.620;2023-11-21T09:11:58;0.23;72.99
75281;HTU21D;63874;47.230;39.620;2023-11-21T09:14:26;0.19;73.00
75281;HTU21D;63874;47.230;39.620;2023-11-21T09:16:52;0.18;72.54
75281;HTU21D;63874;47.230;39.620;2023-11-21T09:19:18;0.20;72.83
75281;HTU21D;63874;47.230;39.620;2023-11-21T09:21:44;0.20;72.73
75281;HTU21D;63874;47.230;39.620;2023-11-21T09:24:11;0.17;72.63
75281;HTU21D;63874;47.230;39.620;2023-11-21T09:26:36;0.10;72.90
75281;HTU21D;63874;47.230;39.620;2023-11-21T09:29:02;0.08;73.28
75281;HTU21D;63874;47.230;39.620;2023-11-21T09:31:28;0.05;73.28
75281;HTU21D;63874;47.230;39.620;2023-11-21T09:33:54;0.01;73.42
75281;HTU21D;63874;47.230;39.620;2023-11-21T09:36:20;-0.05;73.54
75281;HTU21D;63874;47.230;39.620;2023-11-21T09:38:49;-0.03;73.96
75281;HTU21D;63874;47.230;39.620;2023-11-21T09:41:23;0.05;74.25
75281;HTU21D;63874;47.230;39.620;2023-11-21T09:44:05;0.10;74.21
75281;HTU21D;63874;47.230;39.620;2023-11-21T09:46:36;0.15;73.99
75281;HTU21D;63874;47.230;39.620;2023-11-21T09:49:04;0.19;73.18
75281;HTU21D;63874;47.230;39.620;2023-11-21T09:51:33;0.20;72.90
75281;HTU21D;63874;47.230;39.620;2023-11-21T09:54:08;0.17;72.57
75281;HTU21D;63874;47.230;39.620;2023-11-21T09:56:38;0.10;72.32
75281;HTU21D;63874;47.230;39.620;2023-11-21T09:59:04;0.05;72.45
75281;HTU21D;63874;47.230;39.620;2023-11-21T10:01:33;-0.00;72.77
75281;HTU21D;63874;47.230;39.620;2023-11-21T10:04:04;-0.00;73.03
75281;HTU21D;63874;47.230;39.620;2023-11-21T10:06:48;0.09;72.51
75281;HTU21D;63874;47.230;39.620;2023-11-21T10:09:15;0.05;72.44
75281;HTU21D;63874;47.230;39.620;2023-11-21T10:11:46;0.05;72.67
75281;HTU21D;63874;47.230;39.620;2023-11-21T10:14:12;0.14;71.50
75281;HTU21D;63874;47.230;39.620;2023-11-21T10:16:42;0.02;72.00
75281;HTU21D;63874;47.230;39.620;2023-11-21T10:19:12;-0.01;72.33
75281;HTU21D;63874;47.230;39.620;2023-11-21T10:21:56;0.01;72.26
75281;HTU21D;63874;47.230;39.620;2023-11-21T10:24:23;0.02;72.28
75281;HTU21D;63874;47.230;39.620;2023-11-21T10:26:49;0.07;72.54
75281;HTU21D;63874;47.230;39.620;2023-11-21T10:29:16;0.08;71.77
75281;HTU21D;63874;47.230;39.620;2023-11-21T10:31:53;0.04;71.54
75281;HTU21D;63874;47.230;39.620;2023-11-21T10:34:23;-0.01;71.72
75281;HTU21D;63874;47.230;39.620;2023-11-21T10:36:51;-0.01;71.96
75281;HTU21D;63874;47.230;39.620;2023-11-21T10:39:18;-0.06;72.05
75281;HTU21D;63874;47.230;39.620;2023-11-21T10:41:48;-0.07;72.09
75281;HTU21D;63874;47.230;39.620;2023-11-21T10:44:19;-0.11;71.85
75281;HTU21D;63874;47.230;39.620;2023-11-21T10:46:54;-0.10;71.35
75281;HTU21D;63874;47.230;39.620;2023-11-21T10:49:43;-0.14;71.26
75281;HTU21D;63874;47.230;39.620;2023-11-21T10:52:12;-0.10;71.58
75281;HTU21D;63874;47.230;39.620;2023-11-21T10:54:46;-0.12;71.22
75281;HTU21D;63874;47.230;39.620;2023-11-21T10:57:13;-0.08;70.72
75281;HTU21D;63874;47.230;39.620;2023-11-21T10:59:47;-0.07;70.99
75281;HTU21D;63874;47.230;39.620;2023-11-21T11:02:24;-0.09;71.13
75281;HTU21D;63874;47.230;39.620;2023-11-21T11:04:58;-0.11;70.88
75281;HTU21D;63874;47.230;39.620;2023-11-21T11:07:26;-0.10;71.57
75281;HTU21D;63874;47.230;39.620;2023-11-21T11:09:53;-0.06;71.47
75281;HTU21D;63874;47.230;39.620;2023-11-21T11:12:23;-0.08;71.38
75281;HTU21D;63874;47.230;39.620;2023-11-21T11:14:50;-0.07;71.67
75281;HTU21D;63874;47.230;39.620;2023-11-21T11:17:17;-0.05;71.64
75281;HTU21D;63874;47.230;39.620;2023-11-21T11:19:49;-0.02;71.46
75281;HTU21D;63874;47.230;39.620;2023-11-21T11:22:18;-0.06;70.94
75281;HTU21D;63874;47.230;39.620;2023-11-21T11:30:06;-0.10;71.31
75281;HTU21D;63874;47.230;39.620;2023-11-21T11:35:10;-0.00;70.79
75281;HTU21D;63874;47.230;39.620;2023-11-21T11:37:40;-0.00;70.53
75281;HTU21D;63874;47.230;39.620;2023-11-21T11:40:06;-0.01;70.68
75281;HTU21D;63874;47.230;39.620;2023-11-21T11:42:32;-0.03;70.39
75281;HTU21D;63874;47.230;39.620;2023-11-21T11:44:58;-0.01;70.18
75281;HTU21D;63874;47.230;39.620;2023-11-21T11:47:35;-0.00;70.65
75281;HTU21D;63874;47.230;39.620;2023-11-21T11:50:07;0.07;69.88
75281;HTU21D;63874;47.230;39.620;2023-11-21T11:52:43;0.05;70.21
75281;HTU21D;63874;47.230;39.620;2023-11-21T11:55:16;0.06;70.40
75281;HTU21D;63874;47.230;39.620;2023-11-21T11:57:45;0.04;70.23
75281;HTU21D;63874;47.230;39.620;2023-11-21T12:00:18;0.09;70.37
75281;HTU21D;63874;47.230;39.620;2023-11-21T12:02:51;0.13;70.32
75281;HTU21D;63874;47.230;39.620;2023-11-21T12:05:18;0.10;70.43
75281;HTU21D;63874;47.230;39.620;2023-11-21T12:07:45;0.06;70.45
75281;HTU21D;63874;47.230;39.620;2023-11-21T12:10:18;0.03;70.22
75281;HTU21D;63874;47.230;39.620;2023-11-21T12:12:44;0.05;69.94
75281;HTU21D;63874;47.230;39.620;2023-11-21T12:15:12;0.03;70.32
75281;HTU21D;63874;47.230;39.620;2023-11-21T12:17:39;-0.03;70.36
75281;HTU21D;63874;47.230;39.620;2023-11-21T12:20:05;-0.05;70.78
75281;HTU21D;63874;47.230;39.620;2023-11-21T12:22:41;-0.08;71.07
75281;HTU21D;63874;47.230;39.620;2023-11-21T12:25:08;-0.05;71.22
75281;HTU21D;63874;47.230;39.620;2023-11-21T12:27:35;-0.01;71.14
75281;HTU21D;63874;47.230;39.620;2023-11-21T12:30:02;-0.08;70.98
75281;HTU21D;63874;47.230;39.620;2023-11-21T12:32:32;-0.08;70.86
75281;HTU21D;63874;47.230;39.620;2023-11-21T12:35:03;-0.06;70.91
75281;HTU21D;63874;47.230;39.620;2023-11-21T12:37:32;-0.06;70.56
75281;HTU21D;63874;47.230;39.620;2023-11-21T12:39:59;-0.07;71.29
75281;HTU21D;63874;47.230;39.620;2023-11-21T12:42:24;-0.05;71.00
75281;HTU21D;63874;47.230;39.620;2023-11-21T12:47:40;-0.07;71.48
75281;HTU21D;63874;47.230;39.620;2023-11-21T12:50:07;-0.08;70.55
75281;HTU21D;63874;47.230;39.620;2023-11-21T12:52:43;-0.09;70.79
75281;HTU21D;63874;47.230;39.620;2023-11-21T12:55:15;-0.14;70.74
75281;HTU21D;63874;47.230;39.620;2023-11-21T12:57:54;-0.21;70.84
75281;HTU21D;63874;47.230;39.620;2023-11-21T13:00:29;-0.25;70.73
75281;HTU21D;63874;47.230;39.620;2023-11-21T13:02:58;-0.30;70.51
75281;HTU21D;63874;47.230;39.620;2023-11-21T13:05:26;-0.34;70.39
75281;HTU21D;63874;47.230;39.620;2023-11-21T13:07:54;-0.36;70.58
75281;HTU21D;63874;47.230;39.620;2023-11-21T13:10:27;-0.41;70.09
75281;HTU21D;63874;47.230;39.620;2023-11-21T13:13:01;-0.43;70.61
75281;HTU21D;63874;47.230;39.620;2023-11-21T13:15:40;-0.41;70.95
75281;HTU21D;63874;47.230;39.620;2023-11-21T13:18:09;-0.37;70.55
75281;HTU21D;63874;47.230;39.620;2023-11-21T13:20:40;-0.36;70.68
75281;HTU21D;63874;47.230;39.620;2023-11-21T13:23:10;-0.35;70.73
75281;HTU21D;63874;47.230;39.620;2023-11-21T13:25:43;-0.40;71.00
75281;HTU21D;63874;47.230;39.620;2023-11-21T13:28:12;-0.41;71.00
75281;HTU21D;63874;47.230;39.620;2023-11-21T13:30:38;-0.38;70.82
75281;HTU21D;63874;47.230;39.620;2023-11-21T13:33:06;-0.43;71.09
75281;HTU21D;63874;47.230;39.620;2023-11-21T13:35:35;-0.45;71.17
75281;HTU21D;63874;47.230;39.620;2023-11-21T13:38:13;-0.51;71.52
75281;HTU21D;63874;47.230;39.620;2023-11-21T13:40:41;-0.52;71.80
75281;HTU21D;63874;47.230;39.620;2023-11-21T13:43:19;-0.51;72.06
75281;HTU21D;63874;47.230;39.620;2023-11-21T13:45:48;-0.46;72.22
75281;HTU21D;63874;47.230;39.620;2023-11-21T13:48:17;-0.42;72.45
75281;HTU21D;63874;47.230;39.620;2023-11-21T13:50:54;-0.34;72.46
75281;HTU21D;63874;47.230;39.620;2023-11-21T13:53:38;-0.30;72.18
75281;HTU21D;63874;47.230;39.620;2023-11-21T13:56:07;-0.32;72.14
75281;HTU21D;63874;47.230;39.620;2023-11-21T13:58:34;-0.32;72.31
75281;HTU21D;63874;47.230;39.620;2023-11-21T14:01:19;-0.31;72.45
75281;HTU21D;63874;47.230;39.620;2023-11-21T14:03:57;-0.32;72.62
75281;HTU21D;63874;47.230;39.620;2023-11-21T14:06:34;-0.32;72.64
75281;HTU21D;63874;47.230;39.620;2023-11-21T14:09:05;-0.28;72.81
75281;HTU21D;63874;47.230;39.620;2023-11-21T14:11:33;-0.24;72.88
75281;HTU21D;63874;47.230;39.620;2023-11-21T14:14:00;-0.23;72.87
75281;HTU21D;63874;47.230;39.620;2023-11-21T14:16:25;-0.24;72.66
75281;HTU21D;63874;47.230;39.620;2023-11-21T14:18:51;-0.26;72.76
75281;HTU21D;63874;47.230;39.620;2023-11-21T14:21:36;-0.24;72.73
75281;HTU21D;63874;47.230;39.620;2023-11-21T14:24:02;-0.21;72.13
75281;HTU21D;63874;47.230;39.620;2023-11-21T14:26:35;-0.25;72.32
75281;HTU21D;63874;47.230;39.620;2023-11-21T14:29:01;-0.26;72.31
75281;HTU21D;63874;47.230;39.620;2023-11-21T14:31:28;-0.28;72.38
75281;HTU21D;63874;47.230;39.620;2023-11-21T14:33:56;-0.31;72.65
75281;HTU21D;63874;47.230;39.620;2023-11-21T14:36:25;-0.30;72.61
75281;HTU21D;63874;47.230;39.620;2023-11-21T14:38:51;-0.29;72.65
75281;HTU21D;63874;47.230;39.620;2023-11-21T14:41:17;-0.27;72.72
75281;HTU21D;63874;47.230;39.620;2023-11-21T14:43:44;-0.27;72.19
75281;HTU21D;63874;47.230;39.620;2023-11-21T14:46:13;-0.32;72.41
75281;HTU21D;63874;47.230;39.620;2023-11-21T14:48:44;-0.30;72.29
75281;HTU21D;63874;47.230;39.620;2023-11-21T14:51:16;-0.29;71.96
75281;HTU21D;63874;47.230;39.620;2023-11-21T14:53:59;-0.27;72.10
75281;HTU21D;63874;47.230;39.620;2023-11-21T14:56:45;-0.25;72.09
75281;HTU21D;63874;47.230;39.620;2023-11-21T14:59:11;-0.26;72.22
75281;HTU21D;63874;47.230;39.620;2023-11-21T15:01:42;-0.26;72.48
75281;HTU21D;63874;47.230;39.620;2023-11-21T15:04:37;-0.20;72.09
75281;HTU21D;63874;47.230;39.620;2023-11-21T15:07:04;-0.21;72.19
75281;HTU21D;63874;47.230;39.620;2023-11-21T15:09:33;-0.22;72.23
75281;HTU21D;63874;47.230;39.620;2023-11-21T15:11:59;-0.19;72.02
75281;HTU21D;63874;47.230;39.620;2023-11-21T15:14:49;-0.15;72.00
75281;HTU21D;63874;47.230;39.620;2023-11-21T15:17:20;-0.19;72.22
75281;HTU21D;63874;47.230;39.620;2023-11-21T15:19:54;-0.17;72.05
75281;HTU21D;63874;47.230;39.620;2023-11-21T15:22:26;-0.20;72.29
75281;HTU21D;63874;47.230;39.620;2023-11-21T15:24:55;-0.19;72.10
75281;HTU21D;63874;47.230;39.620;2023-11-21T15:27:24;-0.20;72.06
75281;HTU21D;63874;47.230;39.620;2023-11-21T15:29:53;-0.16;72.11
75281;HTU21D;63874;47.230;39.620;2023-11-21T15:32:19;-0.14;71.85